sensor_id;sensor_type;location;lat;lon;timestamp;temperature;humidity
40660;DHT22;26753;45.544;9.232;2023-12-14T00:02:09;10.20;99.90
40660;DHT22;26753;45.544;9.232;2023-12-14T00:04:35;7.90;99.90
40660;DHT22;26753;45.544;9.232;2023-12-14T00:09:27;9.20;99.90
40660;DHT22;26753;45.544;9.232;2023-12-14T00:11:53;10.20;99.90
40660;DHT22;26753;45.544;9.232;2023-12-14T00:14:18;9.80;99.90
40660;DHT22;26753;45.544;9.232;2023-12-14T00:16:44;10.80;99.90
40660;DHT22;26753;45.544;9.232;2023-12-14T00:21:36;11.70;99.90
40660;DHT22;26753;45.544;9.232;2023-12-14T00:24:02;10.00;99.90
40660;DHT22;26753;45.544;9.232;2023-12-14T00:26:28;7.80;99.90
40660;DHT22;26753;45.544;9.232;2023-12-14T00:28:53;11.40;99.90
40660;DHT22;26753;45.544;9.232;2023-12-14T00:31:22;12.30;99.90
40660;DHT22;26753;45.544;9.232;2023-12-14T00:33:51;9.80;99.90
40660;DHT22;26753;45.544;9.232;2023-12-14T00:36:20;10.10;99.90
40660;DHT22;26753;45.544;9.232;2023-12-14T00:41:13;10.90;99.90
40660;DHT22;26753;45.544;9.232;2023-12-14T00:43:42;9.20;99.90
40660;DHT22;26753;45.544;9.232;2023-12-14T00:46:08;10.00;99.90
40660;DHT22;26753;45.544;9.232;2023-12-14T00:51:01;10.10;99.90
40660;DHT22;26753;45.544;9.232;2023-12-14T00:53:26;8.80;99.90
40660;DHT22;26753;45.544;9.232;2023-12-14T01:00:44;6.60;99.90
40660;DHT22;26753;45.544;9.232;2023-12-14T01:37:34;9.30;99.90
40660;DHT22;26753;45.544;9.232;2023-12-14T01:45:01;9.90;99.90
40660;DHT22;26753;45.544;9.232;2023-12-14T01:47:27;8.30;99.90
40660;DHT22;26753;45.544;9.232;2023-12-14T01:52:18;9.80;99.90
40660;DHT22;26753;45.544;9.232;2023-12-14T01:59:37;11.50;99.90
40660;DHT22;26753;45.544;9.232;2023-12-14T02:02:05;10.30;99.90
40660;DHT22;26753;45.544;9.232;2023-12-14T02:06:57;9.70;99.90
40660;DHT22;26753;45.544;9.232;2023-12-14T02:16:42;10.00;99.90
40660;DHT22;26753;45.544;9.232;2023-12-14T02:24:00;10.10;99.90
40660;DHT22;26753;45.544;9.232;2023-12-14T02:28:52;10.20;99.90
40660;DHT22;26753;45.544;9.232;2023-12-14T02:38:40;10.80;99.90
40660;DHT22;26753;45.544;9.232;2023-12-14T02:45:58;11.70;99.90
40660;DHT22;26753;45.544;9.232;2023-12-14T02:50:55;11.40;99.90
40660;DHT22;26753;45.544;9.232;2023-12-14T02:53:39;9.50;99.90
40660;DHT22;26753;45.544;9.232;2023-12-14T03:01:01;11.30;99.90
40660;DHT22;26753;45.544;9.232;2023-12-14T03:03:30;8.10;99.90
40660;DHT22;26753;45.544;9.232;2023-12-14T03:05:55;10.90;99.90
40660;DHT22;26753;45.544;9.232;2023-12-14T03:10:47;10.20;99.90
40660;DHT22;26753;45.544;9.232;2023-12-14T03:13:16;8.50;99.90
40660;DHT22;26753;45.544;9.232;2023-12-14T03:32:46;9.20;99.90
40660;DHT22;26753;45.544;9.232;2023-12-14T03:35:11;9.90;99.90
40660;DHT22;26753;45.544;9.232;2023-12-14T03:37:37;10.70;99.90
40660;DHT22;26753;45.544;9.232;2023-12-14T03:44:56;8.80;99.90
40660;DHT22;26753;45.544;9.232;2023-12-14T03:47:25;10.10;99.90
40660;DHT22;26753;45.544;9.232;2023-12-14T03:49:50;10.50;99.90
40660;DHT22;26753;45.544;9.232;2023-12-14T03:57:11;7.50;99.90
40660;DHT22;26753;45.544;9.232;2023-12-14T04:02:06;6.70;99.90
40660;DHT22;26753;45.544;9.232;2023-12-14T04:07:01;11.70;99.90
40660;DHT22;26753;45.544;9.232;2023-12-14T04:11:52;10.10;99.90
40660;DHT22;26753;45.544;9.232;2023-12-14T04:19:10;10.30;99.90
40660;DHT22;26753;45.544;9.232;2023-12-14T04:24:03;9.50;99.90
40660;DHT22;26753;45.544;9.232;2023-12-14T04:26:29;8.00;99.90
40660;DHT22;26753;45.544;9.232;2023-12-14T04:33:47;9.70;99.90
40660;DHT22;26753;45.544;9.232;2023-12-14T04:38:41;8.50;99.90
40660;DHT22;26753;45.544;9.232;2023-12-14T04:41:08;9.10;99.90
40660;DHT22;26753;45.544;9.232;2023-12-14T04:43:34;8.40;99.90
40660;DHT22;26753;45.544;9.232;2023-12-14T04:50:52;8.60;99.90
40660;DHT22;26753;45.544;9.232;2023-12-14T04:53:17;9.90;99.90
40660;DHT22;26753;45.544;9.232;2023-12-14T04:55:43;9.30;99.90
40660;DHT22;26753;45.544;9.232;2023-12-14T05:03:09;9.10;99.90
40660;DHT22;26753;45.544;9.232;2023-12-14T05:05:35;10.70;99.90
40660;DHT22;26753;45.544;9.232;2023-12-14T05:10:27;8.10;99.90
40660;DHT22;26753;45.544;9.232;2023-12-14T05:15:19;9.30;99.90
40660;DHT22;26753;45.544;9.232;2023-12-14T05:17:45;10.60;99.90
40660;DHT22;26753;45.544;9.232;2023-12-14T05:20:11;9.80;99.90
40660;DHT22;26753;45.544;9.232;2023-12-14T05:25:03;11.50;99.90
40660;DHT22;26753;45.544;9.232;2023-12-14T05:42:11;11.20;99.90
40660;DHT22;26753;45.544;9.232;2023-12-14T05:49:29;10.20;99.90
40660;DHT22;26753;45.544;9.232;2023-12-14T05:59:13;11.70;99.90
40660;DHT22;26753;45.544;9.232;2023-12-14T06:04:05;12.60;99.90
40660;DHT22;26753;45.544;9.232;2023-12-14T06:26:03;11.40;99.90
40660;DHT22;26753;45.544;9.232;2023-12-14T06:30:56;10.20;99.90
40660;DHT22;26753;45.544;9.232;2023-12-14T06:33:22;10.20;99.90
40660;DHT22;26753;45.544;9.232;2023-12-14T06:35:48;9.80;99.90
40660;DHT22;26753;45.544;9.232;2023-12-14T06:47:58;10.90;99.90
40660;DHT22;26753;45.544;9.232;2023-12-14T06:50:24;7.60;99.90
40660;DHT22;26753;45.544;9.232;2023-12-14T07:02:36;9.40;99.90
40660;DHT22;26753;45.544;9.232;2023-12-14T07:17:12;10.90;99.90
40660;DHT22;26753;45.544;9.232;2023-12-14T07:19:37;10.40;99.90
40660;DHT22;26753;45.544;9.232;2023-12-14T07:22:03;12.00;99.90
40660;DHT22;26753;45.544;9.232;2023-12-14T07:29:22;8.70;99.90
40660;DHT22;26753;45.544;9.232;2023-12-14T07:39:05;11.00;99.90
40660;DHT22;26753;45.544;9.232;2023-12-14T07:53:54;8.50;99.90
40660;DHT22;26753;45.544;9.232;2023-12-14T07:56:19;7.20;99.90
40660;DHT22;26753;45.544;9.232;2023-12-14T08:01:16;10.80;99.90
40660;DHT22;26753;45.544;9.232;2023-12-14T08:08:34;12.20;99.90
40660;DHT22;26753;45.544;9.232;2023-12-14T08:13:31;10.50;99.90
40660;DHT22;26753;45.544;9.232;2023-12-14T08:20:52;11.60;99.90
40660;DHT22;26753;45.544;9.232;2023-12-14T08:25:56;10.00;99.90
40660;DHT22;26753;45.544;9.232;2023-12-14T08:28:25;11.10;99.90
40660;DHT22;26753;45.544;9.232;2023-12-14T08:33:18;8.90;99.90
40660;DHT22;26753;45.544;9.232;2023-12-14T08:35:44;12.50;99.90
40660;DHT22;26753;45.544;9.232;2023-12-14T08:38:10;9.70;99.90
40660;DHT22;26753;45.544;9.232;2023-12-14T08:40:37;9.30;99.90
40660;DHT22;26753;45.544;9.232;2023-12-14T08:45:29;9.40;99.90
40660;DHT22;26753;45.544;9.232;2023-12-14T08:50:21;9.40;99.90
40660;DHT22;26753;45.544;9.232;2023-12-14T08:52:47;11.80;99.90
40660;DHT22;26753;45.544;9.232;2023-12-14T08:55:13;11.60;99.90
40660;DHT22;26753;45.544;9.232;2023-12-14T08:57:39;9.90;99.90
40660;DHT22;26753;45.544;9.232;2023-12-14T09:00:24;10.90;99.90
40660;DHT22;26753;45.544;9.232;2023-12-14T09:07:45;11.60;99.90
40660;DHT22;26753;45.544;9.232;2023-12-14T09:10:11;11.90;99.90
40660;DHT22;26753;45.544;9.232;2023-12-14T09:12:37;11.60;99.90
40660;DHT22;26753;45.544;9.232;2023-12-14T09:15:06;10.70;99.90
40660;DHT22;26753;45.544;9.232;2023-12-14T09:25:12;11.80;99.90
40660;DHT22;26753;45.544;9.232;2023-12-14T09:30:05;8.30;99.90
40660;DHT22;26753;45.544;9.232;2023-12-14T09:32:31;12.80;99.90
40660;DHT22;26753;45.544;9.232;2023-12-14T09:34:57;12.50;99.90
40660;DHT22;26753;45.544;9.232;2023-12-14T09:40:01;10.70;99.90
40660;DHT22;26753;45.544;9.232;2023-12-14T09:42:39;9.00;99.90
40660;DHT22;26753;45.544;9.232;2023-12-14T09:47:36;11.00;99.90
40660;DHT22;26753;45.544;9.232;2023-12-14T09:50:02;12.20;99.90
40660;DHT22;26753;45.544;9.232;2023-12-14T09:52:29;10.10;99.90
40660;DHT22;26753;45.544;9.232;2023-12-14T09:54:59;8.50;99.90
40660;DHT22;26753;45.544;9.232;2023-12-14T09:57:25;10.50;99.90
40660;DHT22;26753;45.544;9.232;2023-12-14T09:59:55;7.80;99.90
40660;DHT22;26753;45.544;9.232;2023-12-14T10:02:37;11.20;99.90
40660;DHT22;26753;45.544;9.232;2023-12-14T10:05:07;12.40;99.90
40660;DHT22;26753;45.544;9.232;2023-12-14T10:07:46;13.80;99.90
40660;DHT22;26753;45.544;9.232;2023-12-14T10:10:15;10.80;99.90
40660;DHT22;26753;45.544;9.232;2023-12-14T10:12:56;11.50;99.90
40660;DHT22;26753;45.544;9.232;2023-12-14T10:17:53;11.20;99.90
40660;DHT22;26753;45.544;9.232;2023-12-14T10:20:23;12.90;99.90
40660;DHT22;26753;45.544;9.232;2023-12-14T10:22:55;11.50;99.90
40660;DHT22;26753;45.544;9.232;2023-12-14T10:25:24;9.20;99.90
40660;DHT22;26753;45.544;9.232;2023-12-14T10:27:56;11.00;99.90
40660;DHT22;26753;45.544;9.232;2023-12-14T10:30:27;9.30;99.90
40660;DHT22;26753;45.544;9.232;2023-12-14T10:32:53;11.10;99.90
40660;DHT22;26753;45.544;9.232;2023-12-14T10:37:55;11.80;99.90
40660;DHT22;26753;45.544;9.232;2023-12-14T10:40:22;13.90;99.90
40660;DHT22;26753;45.544;9.232;2023-12-14T10:42:58;12.30;99.90
40660;DHT22;26753;45.544;9.232;2023-12-14T10:45:33;9.90;99.90
40660;DHT22;26753;45.544;9.232;2023-12-14T10:53:02;12.50;99.90
40660;DHT22;26753;45.544;9.232;2023-12-14T10:55:36;10.20;99.90
40660;DHT22;26753;45.544;9.232;2023-12-14T10:58:04;9.50;99.90
40660;DHT22;26753;45.544;9.232;2023-12-14T11:01:07;9.20;99.90
40660;DHT22;26753;45.544;9.232;2023-12-14T11:04:03;12.00;99.90
40660;DHT22;26753;45.544;9.232;2023-12-14T11:06:36;12.60;99.90
40660;DHT22;26753;45.544;9.232;2023-12-14T11:09:09;12.30;99.90
40660;DHT22;26753;45.544;9.232;2023-12-14T11:12:29;11.40;99.90
40660;DHT22;26753;45.544;9.232;2023-12-14T11:15:07;13.90;99.90
40660;DHT22;26753;45.544;9.232;2023-12-14T11:23:16;12.60;99.90
40660;DHT22;26753;45.544;9.232;2023-12-14T11:25:52;11.20;99.90
40660;DHT22;26753;45.544;9.232;2023-12-14T11:28:24;11.70;99.90
40660;DHT22;26753;45.544;9.232;2023-12-14T11:30:56;12.00;99.90
40660;DHT22;26753;45.544;9.232;2023-12-14T11:33:31;12.60;99.90
40660;DHT22;26753;45.544;9.232;2023-12-14T11:35:57;13.20;99.90
40660;DHT22;26753;45.544;9.232;2023-12-14T11:38:24;12.50;99.90
40660;DHT22;26753;45.544;9.232;2023-12-14T11:40:50;14.10;99.90
40660;DHT22;26753;45.544;9.232;2023-12-14T11:43:16;14.00;99.90
40660;DHT22;26753;45.544;9.232;2023-12-14T11:45:42;15.60;99.90
40660;DHT22;26753;45.544;9.232;2023-12-14T11:48:11;16.00;99.90
40660;DHT22;26753;45.544;9.232;2023-12-14T11:50:38;15.30;99.90
40660;DHT22;26753;45.544;9.232;2023-12-14T11:53:05;16.30;99.90
40660;DHT22;26753;45.544;9.232;2023-12-14T11:55:33;15.20;99.90
40660;DHT22;26753;45.544;9.232;2023-12-14T11:58:00;15.40;99.90
40660;DHT22;26753;45.544;9.232;2023-12-14T12:00:27;14.10;99.90
40660;DHT22;26753;45.544;9.232;2023-12-14T12:03:14;14.20;99.90
40660;DHT22;26753;45.544;9.232;2023-12-14T12:08:11;15.90;99.90
40660;DHT22;26753;45.544;9.232;2023-12-14T12:10:38;15.60;99.90
40660;DHT22;26753;45.544;9.232;2023-12-14T12:13:08;16.10;99.90
40660;DHT22;26753;45.544;9.232;2023-12-14T12:15:37;15.00;99.90
40660;DHT22;26753;45.544;9.232;2023-12-14T12:18:07;16.70;99.90
40660;DHT22;26753;45.544;9.232;2023-12-14T12:20:33;22.80;99.90
40660;DHT22;26753;45.544;9.232;2023-12-14T12:23:00;21.10;99.90
40660;DHT22;26753;45.544;9.232;2023-12-14T12:25:27;19.80;99.90
40660;DHT22;26753;45.544;9.232;2023-12-14T12:27:54;19.10;99.90
40660;DHT22;26753;45.544;9.232;2023-12-14T12:30:21;18.60;99.90
40660;DHT22;26753;45.544;9.232;2023-12-14T12:32:53;18.70;99.90
40660;DHT22;26753;45.544;9.232;2023-12-14T12:38:02;22.00;99.90
40660;DHT22;26753;45.544;9.232;2023-12-14T12:43:29;25.00;91.00
40660;DHT22;26753;45.544;9.232;2023-12-14T12:45:55;23.00;92.80
40660;DHT22;26753;45.544;9.232;2023-12-14T12:48:20;21.60;94.50
40660;DHT22;26753;45.544;9.232;2023-12-14T12:50:46;23.10;93.80
40660;DHT22;26753;45.544;9.232;2023-12-14T12:53:18;22.30;93.50
40660;DHT22;26753;45.544;9.232;2023-12-14T12:55:44;22.90;92.60
40660;DHT22;26753;45.544;9.232;2023-12-14T12:58:10;22.80;93.30
40660;DHT22;26753;45.544;9.232;2023-12-14T13:00:47;26.50;91.00
40660;DHT22;26753;45.544;9.232;2023-12-14T13:03:21;26.60;86.70
40660;DHT22;26753;45.544;9.232;2023-12-14T13:06:05;26.60;86.80
40660;DHT22;26753;45.544;9.232;2023-12-14T13:08:30;28.10;81.40
40660;DHT22;26753;45.544;9.232;2023-12-14T13:10:56;29.70;78.80
40660;DHT22;26753;45.544;9.232;2023-12-14T13:13:27;30.80;75.20
40660;DHT22;26753;45.544;9.232;2023-12-14T13:15:56;31.70;72.00
40660;DHT22;26753;45.544;9.232;2023-12-14T13:18:22;32.00;68.40
40660;DHT22;26753;45.544;9.232;2023-12-14T13:20:51;33.20;67.20
40660;DHT22;26753;45.544;9.232;2023-12-14T13:23:23;33.20;64.30
40660;DHT22;26753;45.544;9.232;2023-12-14T13:25:52;32.60;63.70
40660;DHT22;26753;45.544;9.232;2023-12-14T13:28:18;32.30;63.90
40660;DHT22;26753;45.544;9.232;2023-12-14T13:30:44;31.80;63.00
40660;DHT22;26753;45.544;9.232;2023-12-14T13:33:16;31.50;63.20
40660;DHT22;26753;45.544;9.232;2023-12-14T13:35:42;31.40;62.90
40660;DHT22;26753;45.544;9.232;2023-12-14T13:38:08;32.20;63.30
40660;DHT22;26753;45.544;9.232;2023-12-14T13:40:34;33.60;61.10
40660;DHT22;26753;45.544;9.232;2023-12-14T13:42:59;34.40;60.50
40660;DHT22;26753;45.544;9.232;2023-12-14T13:45:29;35.20;59.10
40660;DHT22;26753;45.544;9.232;2023-12-14T13:48:00;35.30;58.10
40660;DHT22;26753;45.544;9.232;2023-12-14T13:50:26;35.70;57.60
40660;DHT22;26753;45.544;9.232;2023-12-14T13:53:22;35.90;56.60
40660;DHT22;26753;45.544;9.232;2023-12-14T13:55:48;36.40;55.30
40660;DHT22;26753;45.544;9.232;2023-12-14T13:58:39;36.50;55.00
40660;DHT22;26753;45.544;9.232;2023-12-14T14:01:08;35.80;53.50
40660;DHT22;26753;45.544;9.232;2023-12-14T14:03:41;35.50;54.60
40660;DHT22;26753;45.544;9.232;2023-12-14T14:06:07;35.70;53.30
40660;DHT22;26753;45.544;9.232;2023-12-14T14:08:45;35.00;53.50
40660;DHT22;26753;45.544;9.232;2023-12-14T14:11:11;34.70;54.10
40660;DHT22;26753;45.544;9.232;2023-12-14T14:13:41;34.60;54.00
40660;DHT22;26753;45.544;9.232;2023-12-14T14:16:16;34.40;53.40
40660;DHT22;26753;45.544;9.232;2023-12-14T14:18:44;34.30;54.00
40660;DHT22;26753;45.544;9.232;2023-12-14T14:21:10;34.20;53.80
40660;DHT22;26753;45.544;9.232;2023-12-14T14:23:45;34.40;54.10
40660;DHT22;26753;45.544;9.232;2023-12-14T14:26:23;34.40;53.80
40660;DHT22;26753;45.544;9.232;2023-12-14T14:28:58;34.00;53.60
40660;DHT22;26753;45.544;9.232;2023-12-14T14:31:42;34.60;53.20
40660;DHT22;26753;45.544;9.232;2023-12-14T14:34:14;33.50;53.40
40660;DHT22;26753;45.544;9.232;2023-12-14T14:36:40;32.30;52.80
40660;DHT22;26753;45.544;9.232;2023-12-14T14:39:06;31.70;54.90
40660;DHT22;26753;45.544;9.232;2023-12-14T14:41:36;31.70;55.20
40660;DHT22;26753;45.544;9.232;2023-12-14T14:47:01;31.40;55.20
40660;DHT22;26753;45.544;9.232;2023-12-14T14:49:36;29.80;55.80
40660;DHT22;26753;45.544;9.232;2023-12-14T14:52:02;29.70;56.80
40660;DHT22;26753;45.544;9.232;2023-12-14T14:54:28;29.40;57.10
40660;DHT22;26753;45.544;9.232;2023-12-14T14:56:56;28.90;57.40
40660;DHT22;26753;45.544;9.232;2023-12-14T14:59:25;28.10;58.20
40660;DHT22;26753;45.544;9.232;2023-12-14T15:02:01;27.70;58.60
40660;DHT22;26753;45.544;9.232;2023-12-14T15:04:30;27.10;59.50
40660;DHT22;26753;45.544;9.232;2023-12-14T15:06:57;26.80;60.00
40660;DHT22;26753;45.544;9.232;2023-12-14T15:09:26;26.30;61.00
40660;DHT22;26753;45.544;9.232;2023-12-14T15:11:52;25.60;61.40
40660;DHT22;26753;45.544;9.232;2023-12-14T15:14:18;24.90;62.50
40660;DHT22;26753;45.544;9.232;2023-12-14T15:16:44;24.90;63.20
40660;DHT22;26753;45.544;9.232;2023-12-14T15:19:10;23.50;63.90
40660;DHT22;26753;45.544;9.232;2023-12-14T15:21:40;21.10;67.80
40660;DHT22;26753;45.544;9.232;2023-12-14T15:24:09;19.20;72.10
40660;DHT22;26753;45.544;9.232;2023-12-14T15:26:34;17.60;76.50
40660;DHT22;26753;45.544;9.232;2023-12-14T15:29:00;17.00;80.40
40660;DHT22;26753;45.544;9.232;2023-12-14T15:31:26;15.90;87.50
40660;DHT22;26753;45.544;9.232;2023-12-14T15:33:52;14.40;86.90
40660;DHT22;26753;45.544;9.232;2023-12-14T15:36:18;14.10;92.30
40660;DHT22;26753;45.544;9.232;2023-12-14T15:38:44;13.40;93.40
40660;DHT22;26753;45.544;9.232;2023-12-14T15:41:15;14.70;96.50
40660;DHT22;26753;45.544;9.232;2023-12-14T15:43:41;14.30;98.20
40660;DHT22;26753;45.544;9.232;2023-12-14T15:46:10;12.80;99.80
40660;DHT22;26753;45.544;9.232;2023-12-14T15:48:36;14.50;99.90
40660;DHT22;26753;45.544;9.232;2023-12-14T15:51:07;14.50;99.90
40660;DHT22;26753;45.544;9.232;2023-12-14T15:53:35;13.50;99.90
40660;DHT22;26753;45.544;9.232;2023-12-14T15:56:05;13.10;99.90
40660;DHT22;26753;45.544;9.232;2023-12-14T15:58:32;13.40;99.90
40660;DHT22;26753;45.544;9.232;2023-12-14T16:01:00;15.10;99.90
40660;DHT22;26753;45.544;9.232;2023-12-14T16:03:29;14.70;99.90
40660;DHT22;26753;45.544;9.232;2023-12-14T16:05:57;14.20;99.90
40660;DHT22;26753;45.544;9.232;2023-12-14T16:08:23;12.40;99.90
40660;DHT22;26753;45.544;9.232;2023-12-14T16:10:49;11.80;99.90
40660;DHT22;26753;45.544;9.232;2023-12-14T16:13:19;12.40;99.90
40660;DHT22;26753;45.544;9.232;2023-12-14T16:18:12;12.30;99.90
40660;DHT22;26753;45.544;9.232;2023-12-14T16:20:40;12.20;99.90
40660;DHT22;26753;45.544;9.232;2023-12-14T16:23:06;10.20;99.90
40660;DHT22;26753;45.544;9.232;2023-12-14T16:25:31;12.00;99.90
40660;DHT22;26753;45.544;9.232;2023-12-14T16:28:00;13.90;99.90
40660;DHT22;26753;45.544;9.232;2023-12-14T16:32:57;12.40;99.90
40660;DHT22;26753;45.544;9.232;2023-12-14T16:35:23;13.60;99.90
40660;DHT22;26753;45.544;9.232;2023-12-14T16:37:52;13.00;99.90
40660;DHT22;26753;45.544;9.232;2023-12-14T16:40:21;13.60;99.90
40660;DHT22;26753;45.544;9.232;2023-12-14T16:42:46;11.20;99.90
40660;DHT22;26753;45.544;9.232;2023-12-14T16:45:15;12.80;99.90
40660;DHT22;26753;45.544;9.232;2023-12-14T16:47:43;12.50;99.90
40660;DHT22;26753;45.544;9.232;2023-12-14T16:50:45;11.70;99.90
40660;DHT22;26753;45.544;9.232;2023-12-14T16:53:11;11.10;99.90
40660;DHT22;26753;45.544;9.232;2023-12-14T16:55:37;13.00;99.90
40660;DHT22;26753;45.544;9.232;2023-12-14T16:58:05;12.10;99.90
40660;DHT22;26753;45.544;9.232;2023-12-14T17:00:34;12.70;99.90
40660;DHT22;26753;45.544;9.232;2023-12-14T17:03:00;11.90;99.90
40660;DHT22;26753;45.544;9.232;2023-12-14T17:08:07;10.70;99.90
40660;DHT22;26753;45.544;9.232;2023-12-14T17:10:39;11.50;99.90
40660;DHT22;26753;45.544;9.232;2023-12-14T17:13:04;9.40;99.90
40660;DHT22;26753;45.544;9.232;2023-12-14T17:15:30;12.10;99.90
40660;DHT22;26753;45.544;9.232;2023-12-14T17:20:28;10.90;99.90
40660;DHT22;26753;45.544;9.232;2023-12-14T17:22:54;9.10;99.90
40660;DHT22;26753;45.544;9.232;2023-12-14T17:25:19;11.00;99.90
40660;DHT22;26753;45.544;9.232;2023-12-14T17:27:45;12.90;99.90
40660;DHT22;26753;45.544;9.232;2023-12-14T17:30:12;11.70;99.90
40660;DHT22;26753;45.544;9.232;2023-12-14T17:32:38;10.50;99.90
40660;DHT22;26753;45.544;9.232;2023-12-14T17:35:04;10.00;99.90
40660;DHT22;26753;45.544;9.232;2023-12-14T17:37:30;11.10;99.90
40660;DHT22;26753;45.544;9.232;2023-12-14T17:39:55;12.50;99.90
40660;DHT22;26753;45.544;9.232;2023-12-14T17:42:21;11.00;99.90
40660;DHT22;26753;45.544;9.232;2023-12-14T17:47:14;9.30;99.90
40660;DHT22;26753;45.544;9.232;2023-12-14T17:52:06;10.30;99.90
40660;DHT22;26753;45.544;9.232;2023-12-14T17:56:57;9.50;99.90
40660;DHT22;26753;45.544;9.232;2023-12-14T17:59:23;10.10;99.90
40660;DHT22;26753;45.544;9.232;2023-12-14T18:01:49;12.90;99.90
40660;DHT22;26753;45.544;9.232;2023-12-14T18:06:44;9.80;99.90
40660;DHT22;26753;45.544;9.232;2023-12-14T18:11:39;11.40;99.90
40660;DHT22;26753;45.544;9.232;2023-12-14T18:14:08;11.80;99.90
40660;DHT22;26753;45.544;9.232;2023-12-14T18:16:34;10.90;99.90
40660;DHT22;26753;45.544;9.232;2023-12-14T18:21:29;9.70;99.90
40660;DHT22;26753;45.544;9.232;2023-12-14T18:26:21;8.80;99.90
40660;DHT22;26753;45.544;9.232;2023-12-14T18:31:19;11.70;99.90
40660;DHT22;26753;45.544;9.232;2023-12-14T18:46:08;9.80;99.90
40660;DHT22;26753;45.544;9.232;2023-12-14T19:00:54;10.60;99.90
40660;DHT22;26753;45.544;9.232;2023-12-14T19:05:49;10.10;99.90
40660;DHT22;26753;45.544;9.232;2023-12-14T19:11:01;8.90;99.90
40660;DHT22;26753;45.544;9.232;2023-12-14T19:13:27;8.90;99.90
40660;DHT22;26753;45.544;9.232;2023-12-14T19:15:52;6.70;99.90
40660;DHT22;26753;45.544;9.232;2023-12-14T19:25:37;9.90;99.90
40660;DHT22;26753;45.544;9.232;2023-12-14T19:28:03;11.70;99.90
40660;DHT22;26753;45.544;9.232;2023-12-14T19:40:17;10.00;99.90
40660;DHT22;26753;45.544;9.232;2023-12-14T19:42:42;8.50;99.90
40660;DHT22;26753;45.544;9.232;2023-12-14T19:47:35;8.30;99.90
40660;DHT22;26753;45.544;9.232;2023-12-14T19:50:06;11.50;99.90
40660;DHT22;26753;45.544;9.232;2023-12-14T19:52:32;11.80;99.90
40660;DHT22;26753;45.544;9.232;2023-12-14T19:54:57;10.50;99.90
40660;DHT22;26753;45.544;9.232;2023-12-14T19:57:23;10.20;99.90
40660;DHT22;26753;45.544;9.232;2023-12-14T19:59:50;9.60;99.90
40660;DHT22;26753;45.544;9.232;2023-12-14T20:04:44;11.20;99.90
40660;DHT22;26753;45.544;9.232;2023-12-14T20:09:37;10.90;99.90
40660;DHT22;26753;45.544;9.232;2023-12-14T20:14:29;9.50;99.90
40660;DHT22;26753;45.544;9.232;2023-12-14T20:31:35;10.50;99.90
40660;DHT22;26753;45.544;9.232;2023-12-14T20:41:20;10.30;99.90
40660;DHT22;26753;45.544;9.232;2023-12-14T20:46:12;9.50;99.90
40660;DHT22;26753;45.544;9.232;2023-12-14T20:48:38;9.40;99.90
40660;DHT22;26753;45.544;9.232;2023-12-14T20:51:05;9.80;99.90
40660;DHT22;26753;45.544;9.232;2023-12-14T20:53:31;8.90;99.90
40660;DHT22;26753;45.544;9.232;2023-12-14T20:55:57;9.20;99.90
40660;DHT22;26753;45.544;9.232;2023-12-14T20:58:24;9.40;99.90
40660;DHT22;26753;45.544;9.232;2023-12-14T21:00:49;7.60;99.90
40660;DHT22;26753;45.544;9.232;2023-12-14T21:05:44;8.10;99.90
40660;DHT22;26753;45.544;9.232;2023-12-14T21:08:09;9.60;99.90
40660;DHT22;26753;45.544;9.232;2023-12-14T21:10:35;8.70;99.90
40660;DHT22;26753;45.544;9.232;2023-12-14T21:13:01;12.00;99.90
40660;DHT22;26753;45.544;9.232;2023-12-14T21:17:53;11.90;99.90
40660;DHT22;26753;45.544;9.232;2023-12-14T21:20:22;8.20;99.90
40660;DHT22;26753;45.544;9.232;2023-12-14T21:25:14;11.10;99.90
40660;DHT22;26753;45.544;9.232;2023-12-14T21:35:07;9.40;99.90
40660;DHT22;26753;45.544;9.232;2023-12-14T21:37:33;6.90;99.90
40660;DHT22;26753;45.544;9.232;2023-12-14T21:40:01;8.00;99.90
40660;DHT22;26753;45.544;9.232;2023-12-14T21:42:28;9.60;99.90
40660;DHT22;26753;45.544;9.232;2023-12-14T21:49:49;11.20;99.90
40660;DHT22;26753;45.544;9.232;2023-12-14T21:52:14;9.60;99.90
40660;DHT22;26753;45.544;9.232;2023-12-14T22:21:28;7.50;99.90
40660;DHT22;26753;45.544;9.232;2023-12-14T22:26:20;6.90;99.90
40660;DHT22;26753;45.544;9.232;2023-12-14T22:36:04;10.00;99.90
40660;DHT22;26753;45.544;9.232;2023-12-14T22:40:56;8.00;99.90
40660;DHT22;26753;45.544;9.232;2023-12-14T22:43:22;9.10;99.90
40660;DHT22;26753;45.544;9.232;2023-12-14T22:45:48;8.30;99.90
40660;DHT22;26753;45.544;9.232;2023-12-14T22:48:14;8.60;99.90
40660;DHT22;26753;45.544;9.232;2023-12-14T22:55:32;7.70;99.90
40660;DHT22;26753;45.544;9.232;2023-12-14T23:07:54;8.00;99.90
40660;DHT22;26753;45.544;9.232;2023-12-14T23:15:13;8.80;99.90
